Time;durP1;ratioP1;P1;durP2;ratioP2;P2;SDS_P1;SDS_P2;PMS_P1;PMS_P2;Temp;Humidity;BMP_temperature;BMP_pressure;BME280_temperature;BME280_humidity;BME280_pressure;Samples;Min_cycle;Max_cycle;Signal;HPM_P1;HPM_P2
2023/12/27 00:00:05;;;;;;;11.85;4.97;;;11.70;99.90;;;;;;4112398;28;20434;-71
2023/12/27 00:02:07;;;;;;;10.85;4.55;;;11.70;99.90;;;;;;4114387;28;20046;-69
2023/12/27 00:04:10;;;;;;;11.52;5.70;;;11.60;99.90;;;;;;4115787;28;20352;-68
2023/12/27 00:06:13;;;;;;;15.70;5.70;;;11.70;99.90;;;;;;4115935;28;20054;-70
2023/12/27 00:08:15;;;;;;;18.38;6.00;;;11.70;99.90;;;;;;4115660;28;20039;-69
2023/12/27 00:10:19;;;;;;;10.80;5.15;;;11.60;99.90;;;;;;4115535;28;20047;-70
2023/12/27 00:12:21;;;;;;;14.52;5.85;;;11.60;99.90;;;;;;4114969;28;20047;-71
2023/12/27 00:14:23;;;;;;;15.98;6.32;;;11.60;99.90;;;;;;4110656;28;20387;-70
2023/12/27 00:16:25;;;;;;;12.73;5.18;;;11.60;99.90;;;;;;4101040;28;20403;-71
2023/12/27 00:18:27;;;;;;;15.65;5.70;;;11.60;99.90;;;;;;4102663;28;20042;-70
2023/12/27 00:20:30;;;;;;;14.27;5.10;;;11.70;99.90;;;;;;4114559;28;20055;-71
2023/12/27 00:22:32;;;;;;;14.55;5.00;;;11.60;99.90;;;;;;4115039;28;20118;-70
2023/12/27 00:24:34;;;;;;;13.75;5.35;;;11.60;99.90;;;;;;4115663;28;20410;-70
2023/12/27 00:26:37;;;;;;;18.83;5.32;;;11.60;99.90;;;;;;4115870;28;20051;-71
2023/12/27 00:28:40;;;;;;;12.00;5.00;;;11.60;99.90;;;;;;4098652;29;20494;-71
2023/12/27 00:30:42;;;;;;;15.27;5.28;;;11.50;99.90;;;;;;4115625;28;20494;-71
2023/12/27 00:32:44;;;;;;;16.13;5.50;;;11.60;99.90;;;;;;4113443;28;20105;-71
2023/12/27 00:34:48;;;;;;;14.95;5.60;;;11.60;99.90;;;;;;4114904;28;20049;-71
2023/12/27 00:36:50;;;;;;;11.88;4.88;;;11.60;99.90;;;;;;4115662;28;20125;-71
2023/12/27 00:38:52;;;;;;;15.45;4.85;;;11.50;99.90;;;;;;4115441;28;20054;-70
2023/12/27 00:40:56;;;;;;;13.07;4.40;;;11.50;99.90;;;;;;4115645;28;20050;-71
2023/12/27 00:42:59;;;;;;;15.05;5.10;;;11.50;99.90;;;;;;4115899;28;20083;-70
2023/12/27 00:45:02;;;;;;;12.80;5.30;;;11.60;99.90;;;;;;4116024;28;20058;-71
2023/12/27 00:47:04;;;;;;;13.20;4.38;;;11.60;99.90;;;;;;4114797;28;20053;-73
2023/12/27 00:49:06;;;;;;;15.98;5.15;;;11.60;99.90;;;;;;4115482;28;20047;-71
2023/12/27 00:51:18;;;;;;;10.25;4.72;;;11.60;99.90;;;;;;4105119;28;20058;-70
2023/12/27 00:53:20;;;;;;;13.02;4.93;;;11.60;99.90;;;;;;4099683;29;20059;-70
2023/12/27 00:55:22;;;;;;;12.20;4.88;;;11.60;99.90;;;;;;4099355;29;20055;-73
2023/12/27 00:57:24;;;;;;;13.82;4.93;;;11.60;99.90;;;;;;4098657;29;20122;-72
2023/12/27 00:59:28;;;;;;;18.63;5.93;;;11.60;99.90;;;;;;4104904;28;20043;-70
2023/12/27 01:01:30;;;;;;;18.27;5.63;;;11.60;99.90;;;;;;4097680;28;20047;-69
2023/12/27 01:03:32;;;;;;;16.35;5.43;;;11.60;99.90;;;;;;4115954;28;20047;-71
2023/12/27 01:05:35;;;;;;;12.68;5.15;;;11.50;99.90;;;;;;4115417;28;20047;-70
2023/12/27 01:07:37;;;;;;;16.60;5.15;;;11.60;99.90;;;;;;4108287;28;20121;-71
2023/12/27 01:09:39;;;;;;;10.50;4.72;;;11.60;99.90;;;;;;4112017;28;20109;-70
2023/12/27 01:11:42;;;;;;;16.80;5.50;;;11.60;99.90;;;;;;4115262;28;20047;-69
2023/12/27 01:13:44;;;;;;;14.15;5.60;;;11.60;99.90;;;;;;4125965;28;20080;-70
2023/12/27 01:15:48;;;;;;;20.50;5.45;;;11.50;99.90;;;;;;4131133;28;20442;-70
2023/12/27 01:17:50;;;;;;;20.45;5.40;;;11.50;99.90;;;;;;4097603;29;20047;-71
2023/12/27 01:19:53;;;;;;;13.52;5.63;;;11.50;99.90;;;;;;4115048;28;20047;-72
2023/12/27 01:21:55;;;;;;;11.73;5.07;;;11.50;99.90;;;;;;4115191;28;20492;-73
2023/12/27 01:23:57;;;;;;;18.13;5.88;;;11.50;99.90;;;;;;4114058;28;20445;-71
2023/12/27 01:26:00;;;;;;;12.95;5.43;;;11.60;99.90;;;;;;4102578;29;20047;-70
2023/12/27 01:28:02;;;;;;;13.93;5.15;;;11.50;99.90;;;;;;4108422;28;20049;-71
2023/12/27 01:30:06;;;;;;;10.88;4.85;;;11.50;99.90;;;;;;4118237;28;20081;-70
2023/12/27 01:32:10;;;;;;;17.13;5.57;;;11.50;99.90;;;;;;4118453;28;20078;-70
2023/12/27 01:34:12;;;;;;;13.48;4.65;;;11.50;99.90;;;;;;4117285;28;20047;-70
2023/12/27 01:36:24;;;;;;;9.82;4.90;;;11.50;99.90;;;;;;4118263;28;20467;-70
2023/12/27 01:38:26;;;;;;;10.27;4.28;;;11.60;99.90;;;;;;4118348;28;20046;-71
2023/12/27 01:40:30;;;;;;;13.35;5.70;;;11.50;99.90;;;;;;4119479;28;20058;-71
2023/12/27 01:42:33;;;;;;;13.57;5.20;;;11.50;99.90;;;;;;4118350;28;20050;-71
2023/12/27 01:44:36;;;;;;;13.90;4.93;;;11.50;99.90;;;;;;4121269;28;20055;-70
2023/12/27 01:46:38;;;;;;;15.55;5.13;;;11.50;99.90;;;;;;4122070;28;20051;-71
2023/12/27 01:48:43;;;;;;;14.23;5.38;;;11.50;99.90;;;;;;4121076;28;20061;-70
2023/12/27 01:50:45;;;;;;;12.68;4.93;;;11.50;99.90;;;;;;4120929;28;20068;-71
2023/12/27 01:52:47;;;;;;;15.65;5.70;;;11.40;99.90;;;;;;4118894;28;20043;-70
2023/12/27 01:54:50;;;;;;;14.00;5.35;;;11.40;99.90;;;;;;4118821;28;20125;-70
2023/12/27 01:56:52;;;;;;;13.30;5.18;;;11.30;99.90;;;;;;4119072;28;20050;-70
2023/12/27 01:58:54;;;;;;;13.13;5.18;;;11.30;99.90;;;;;;4112692;28;20479;-71
2023/12/27 02:00:58;;;;;;;14.90;5.70;;;11.20;99.90;;;;;;4117545;28;20090;-71
2023/12/27 02:03:00;;;;;;;11.90;5.25;;;11.20;99.90;;;;;;4117529;28;20042;-71
2023/12/27 02:05:05;;;;;;;13.85;5.45;;;11.20;99.90;;;;;;4117149;28;20070;-71
2023/12/27 02:07:07;;;;;;;13.77;5.60;;;11.20;99.90;;;;;;4117102;28;20053;-71
2023/12/27 02:09:26;;;;;;;14.05;5.07;;;11.20;99.90;;;;;;4117330;28;20558;-71
2023/12/27 02:11:28;;;;;;;13.60;5.60;;;11.10;99.90;;;;;;4117132;28;20147;-71
2023/12/27 02:13:30;;;;;;;13.38;5.05;;;11.20;99.90;;;;;;4112360;28;20042;-71
2023/12/27 02:15:32;;;;;;;12.93;5.00;;;11.10;99.90;;;;;;4117213;28;20079;-70
2023/12/27 02:17:35;;;;;;;13.90;5.25;;;11.10;99.90;;;;;;4117234;28;20070;-71
2023/12/27 02:19:38;;;;;;;13.73;4.82;;;11.10;99.90;;;;;;4116373;28;20057;-71
2023/12/27 02:21:42;;;;;;;13.70;4.93;;;11.10;99.90;;;;;;4116983;28;20047;-71
2023/12/27 02:23:48;;;;;;;14.88;5.18;;;11.10;99.90;;;;;;4117583;28;20483;-70
2023/12/27 02:25:54;;;;;;;17.20;4.60;;;11.20;99.90;;;;;;4117676;28;20129;-70
2023/12/27 02:27:56;;;;;;;10.88;4.25;;;11.20;99.90;;;;;;4117331;28;20043;-71
2023/12/27 02:29:59;;;;;;;8.45;3.97;;;11.20;99.90;;;;;;4113680;28;20050;-69
2023/12/27 02:32:01;;;;;;;14.73;5.00;;;11.20;99.90;;;;;;4101226;29;20498;-70
2023/12/27 02:34:03;;;;;;;11.07;4.43;;;11.20;99.90;;;;;;4101593;28;20067;-71
2023/12/27 02:36:06;;;;;;;15.48;5.45;;;11.20;99.90;;;;;;4111403;28;20124;-70
2023/12/27 02:38:08;;;;;;;13.63;4.72;;;11.20;99.90;;;;;;4117275;28;20414;-71
2023/12/27 02:40:11;;;;;;;10.75;4.20;;;11.10;99.90;;;;;;4116894;28;20054;-71
2023/12/27 02:42:14;;;;;;;10.13;4.57;;;11.20;99.90;;;;;;4117641;28;20644;-71
2023/12/27 02:44:17;;;;;;;10.90;4.22;;;11.20;99.90;;;;;;4118364;28;20133;-71
2023/12/27 02:46:19;;;;;;;11.77;4.40;;;11.20;99.90;;;;;;4118353;28;20051;-71
2023/12/27 02:48:21;;;;;;;13.27;4.57;;;11.20;99.90;;;;;;4115343;28;20058;-71
2023/12/27 02:50:23;;;;;;;14.52;4.75;;;11.10;99.90;;;;;;4117196;28;20043;-70
2023/12/27 02:52:25;;;;;;;12.20;4.50;;;11.10;99.90;;;;;;4116906;28;20046;-71
2023/12/27 02:54:27;;;;;;;14.20;4.28;;;11.10;99.90;;;;;;4117562;28;20417;-71
2023/12/27 02:56:29;;;;;;;13.27;4.95;;;11.10;99.90;;;;;;4117629;28;20051;-70
2023/12/27 02:58:33;;;;;;;10.43;4.95;;;11.00;99.90;;;;;;4117790;28;20490;-71
2023/12/27 03:00:35;;;;;;;11.05;4.07;;;11.00;99.90;;;;;;4117762;28;20136;-70
2023/12/27 03:02:38;;;;;;;13.13;4.32;;;11.10;99.90;;;;;;4117199;28;20042;-71
2023/12/27 03:04:40;;;;;;;12.30;4.63;;;11.10;99.90;;;;;;4100528;29;20051;-73
2023/12/27 03:06:42;;;;;;;12.07;4.22;;;11.10;99.90;;;;;;4115610;28;20133;-70
2023/12/27 03:08:44;;;;;;;12.32;4.68;;;11.20;99.90;;;;;;4116400;28;20047;-70
2023/12/27 03:10:46;;;;;;;11.25;4.05;;;11.20;99.90;;;;;;4116943;28;20130;-70
2023/12/27 03:12:48;;;;;;;9.50;3.88;;;11.20;99.90;;;;;;4120597;28;20069;-71
2023/12/27 03:14:51;;;;;;;10.57;4.00;;;11.20;99.90;;;;;;4122743;28;20078;-70
2023/12/27 03:16:53;;;;;;;7.60;3.70;;;11.20;99.90;;;;;;4122850;28;20062;-70
2023/12/27 03:18:56;;;;;;;7.47;3.75;;;11.10;99.90;;;;;;4124011;28;20115;-70
2023/12/27 03:20:58;;;;;;;7.25;3.47;;;11.20;99.90;;;;;;4122492;28;20097;-75
2023/12/27 03:23:01;;;;;;;13.50;4.30;;;11.10;99.90;;;;;;4118326;28;20487;-70
2023/12/27 03:25:04;;;;;;;10.82;3.50;;;11.00;99.90;;;;;;4106516;29;20062;-70
2023/12/27 03:27:06;;;;;;;12.73;4.10;;;11.00;99.90;;;;;;4086053;29;20047;-70
2023/12/27 03:29:08;;;;;;;11.85;3.50;;;11.00;99.90;;;;;;4104957;28;20126;-71
2023/12/27 03:31:12;;;;;;;12.20;3.90;;;11.00;99.90;;;;;;4120765;28;20224;-70
2023/12/27 03:33:14;;;;;;;9.65;3.53;;;11.00;99.90;;;;;;4118712;28;20468;-70
2023/12/27 03:35:16;;;;;;;12.27;4.00;;;11.00;99.90;;;;;;4117671;28;20034;-71
2023/12/27 03:37:18;;;;;;;13.30;3.70;;;11.10;99.90;;;;;;4118119;28;20358;-71
2023/12/27 03:39:20;;;;;;;11.45;3.83;;;11.10;99.90;;;;;;4115833;28;20059;-71
2023/12/27 03:41:24;;;;;;;14.48;4.57;;;11.10;99.90;;;;;;4114976;28;20066;-70
2023/12/27 03:43:26;;;;;;;11.48;3.80;;;11.10;99.90;;;;;;4116875;28;20469;-70
2023/12/27 03:45:28;;;;;;;9.45;3.78;;;11.00;99.90;;;;;;4116851;28;20042;-70
2023/12/27 03:47:32;;;;;;;12.90;4.05;;;11.00;99.90;;;;;;4116438;28;20138;-70
2023/12/27 03:49:34;;;;;;;15.70;3.97;;;11.00;99.90;;;;;;4116584;28;20155;-70
2023/12/27 03:51:36;;;;;;;10.98;3.53;;;11.10;99.90;;;;;;4099685;28;20338;-70
2023/12/27 03:53:38;;;;;;;9.32;3.42;;;11.10;99.90;;;;;;4115574;28;20462;-70
2023/12/27 03:55:42;;;;;;;8.50;3.70;;;11.10;99.90;;;;;;4112701;28;20077;-71
2023/12/27 03:57:44;;;;;;;7.45;3.22;;;11.10;99.90;;;;;;4100928;29;20047;-70
2023/12/27 03:59:47;;;;;;;13.15;4.30;;;11.00;99.90;;;;;;4100873;28;20051;-70
2023/12/27 04:01:49;;;;;;;11.98;3.60;;;11.00;99.90;;;;;;4115348;28;20054;-70
2023/12/27 04:03:52;;;;;;;13.45;3.78;;;11.00;99.90;;;;;;4115927;28;20050;-70
2023/12/27 04:05:56;;;;;;;16.40;3.70;;;11.10;99.90;;;;;;4098687;28;20047;-70
2023/12/27 04:07:58;;;;;;;9.00;3.83;;;11.10;99.90;;;;;;4098508;29;20050;-71
2023/12/27 04:10:01;;;;;;;11.50;3.38;;;11.00;99.90;;;;;;4115522;28;20150;-70
2023/12/27 04:12:03;;;;;;;12.02;3.50;;;11.10;99.90;;;;;;4113746;28;20050;-71
2023/12/27 04:14:05;;;;;;;11.40;4.43;;;11.10;99.90;;;;;;4115440;28;20478;-70
2023/12/27 04:16:07;;;;;;;11.25;4.00;;;11.10;99.90;;;;;;4114754;28;20137;-71
2023/12/27 04:18:11;;;;;;;12.80;3.97;;;11.10;99.90;;;;;;4098675;28;20498;-71
2023/12/27 04:20:15;;;;;;;13.65;3.53;;;11.00;99.90;;;;;;4115643;28;20078;-70
2023/12/27 04:22:17;;;;;;;11.82;3.80;;;11.00;99.90;;;;;;4098327;29;20071;-71
2023/12/27 04:24:19;;;;;;;11.27;3.67;;;11.00;99.90;;;;;;4115756;28;20047;-70
2023/12/27 04:26:22;;;;;;;11.45;3.22;;;11.00;99.90;;;;;;4115749;28;20047;-70
2023/12/27 04:28:24;;;;;;;13.65;4.07;;;11.00;99.90;;;;;;4112290;28;20098;-70
2023/12/27 04:30:27;;;;;;;10.38;3.85;;;11.00;99.90;;;;;;4108948;28;20042;-69
2023/12/27 04:32:31;;;;;;;8.77;3.08;;;11.00;99.90;;;;;;4120501;28;20065;-69
2023/12/27 04:34:33;;;;;;;8.38;3.63;;;11.00;99.90;;;;;;4117814;28;20078;-68
2023/12/27 04:36:36;;;;;;;10.75;3.72;;;10.90;99.90;;;;;;4115703;28;20054;-69
2023/12/27 04:38:39;;;;;;;7.30;3.28;;;11.00;99.90;;;;;;4115439;28;20415;-70
2023/12/27 04:40:46;;;;;;;7.97;3.05;;;11.00;99.90;;;;;;4115554;28;20446;-70
2023/12/27 04:42:49;;;;;;;10.98;3.85;;;10.90;99.90;;;;;;4115600;28;20058;-70
2023/12/27 04:44:51;;;;;;;13.65;4.00;;;10.90;99.90;;;;;;4102041;28;20059;-70
2023/12/27 04:46:53;;;;;;;12.38;3.90;;;10.90;99.90;;;;;;4098225;29;20456;-70
2023/12/27 04:48:56;;;;;;;11.38;3.78;;;11.00;99.90;;;;;;4113511;28;20097;-71
2023/12/27 04:50:58;;;;;;;9.80;3.80;;;10.90;99.90;;;;;;4113782;28;20050;-71
2023/12/27 04:53:02;;;;;;;11.13;3.22;;;11.00;99.90;;;;;;4098122;28;20090;-71
2023/12/27 04:55:05;;;;;;;12.65;3.70;;;10.90;99.90;;;;;;4115902;28;20044;-71
2023/12/27 04:57:07;;;;;;;11.20;3.72;;;11.00;99.90;;;;;;4117913;28;20482;-72
2023/12/27 04:59:09;;;;;;;7.13;3.53;;;10.90;99.90;;;;;;4120631;28;20042;-71
2023/12/27 05:01:12;;;;;;;8.90;3.63;;;10.90;99.90;;;;;;4119613;28;20058;-71
2023/12/27 05:03:14;;;;;;;15.18;3.85;;;10.90;99.90;;;;;;4119319;28;20442;-70
2023/12/27 05:05:16;;;;;;;9.43;3.50;;;10.90;99.90;;;;;;4102373;29;20204;-71
2023/12/27 05:07:18;;;;;;;12.45;3.53;;;10.80;99.90;;;;;;4114721;28;20471;-70
2023/12/27 05:09:22;;;;;;;11.35;3.70;;;10.90;99.90;;;;;;4115697;28;20054;-71
2023/12/27 05:11:24;;;;;;;9.23;3.20;;;10.90;99.90;;;;;;4118944;28;20047;-71
2023/12/27 05:13:27;;;;;;;11.77;3.30;;;10.80;99.90;;;;;;4119057;28;20471;-70
2023/12/27 05:15:29;;;;;;;11.52;2.97;;;10.90;99.90;;;;;;4119098;28;20055;-71
2023/12/27 05:17:31;;;;;;;9.88;3.47;;;10.90;99.90;;;;;;4117388;28;20093;-70
2023/12/27 05:19:37;;;;;;;8.30;3.08;;;10.80;99.90;;;;;;4117454;28;20097;-70
2023/12/27 05:21:39;;;;;;;9.43;2.88;;;10.80;99.90;;;;;;4108928;28;20130;-71
2023/12/27 05:23:41;;;;;;;8.73;2.92;;;10.80;99.90;;;;;;4118796;28;20364;-71
2023/12/27 05:25:45;;;;;;;12.43;3.65;;;10.80;99.90;;;;;;4118002;28;20050;-70
2023/12/27 05:27:47;;;;;;;13.38;3.70;;;10.70;99.90;;;;;;4120515;28;20069;-70
2023/12/27 05:29:49;;;;;;;9.77;2.63;;;10.70;99.90;;;;;;4120245;28;20131;-70
2023/12/27 05:31:51;;;;;;;7.55;3.38;;;10.80;99.90;;;;;;4120047;28;20395;-70
2023/12/27 05:33:53;;;;;;;9.93;3.35;;;10.70;99.90;;;;;;4109220;28;20479;-70
2023/12/27 05:35:56;;;;;;;11.80;3.17;;;10.70;99.90;;;;;;4104588;28;20051;-70
2023/12/27 05:37:59;;;;;;;6.78;3.53;;;10.70;99.90;;;;;;4118031;28;20062;-69
2023/12/27 05:40:03;;;;;;;6.53;2.90;;;10.80;99.90;;;;;;4117062;28;20063;-70
2023/12/27 05:42:06;;;;;;;8.77;3.70;;;10.80;99.90;;;;;;4118175;28;20061;-70
2023/12/27 05:44:08;;;;;;;12.75;3.35;;;10.90;99.90;;;;;;4117757;28;20054;-71
2023/12/27 05:46:11;;;;;;;9.75;3.83;;;10.90;99.90;;;;;;4117057;28;20446;-69
2023/12/27 05:48:13;;;;;;;8.93;3.35;;;10.80;99.90;;;;;;4118218;28;20133;-70
2023/12/27 05:50:15;;;;;;;10.93;3.83;;;10.80;99.90;;;;;;4117301;28;20129;-70
2023/12/27 05:52:17;;;;;;;11.32;3.63;;;10.80;99.90;;;;;;4118988;28;20536;-70
2023/12/27 05:54:19;;;;;;;9.68;3.33;;;10.80;99.90;;;;;;4118398;28;20058;-69
2023/12/27 05:56:21;;;;;;;11.13;3.38;;;10.80;99.90;;;;;;4100578;28;20142;-70
2023/12/27 05:58:26;;;;;;;9.43;3.40;;;10.80;99.90;;;;;;4118307;28;20050;-69
2023/12/27 06:00:28;;;;;;;9.57;3.63;;;10.80;99.90;;;;;;4100032;29;20503;-70
2023/12/27 06:02:32;;;;;;;11.57;3.20;;;10.80;99.90;;;;;;4117882;28;20554;-70
2023/12/27 06:04:34;;;;;;;13.20;3.80;;;10.70;99.90;;;;;;4117693;28;20051;-70
2023/12/27 06:06:36;;;;;;;13.35;3.35;;;10.80;99.90;;;;;;4117598;28;20043;-69
2023/12/27 06:08:38;;;;;;;10.13;2.97;;;10.70;99.90;;;;;;4111212;28;20043;-70
2023/12/27 06:10:41;;;;;;;10.48;3.45;;;10.70;99.90;;;;;;4117722;28;20082;-71
2023/12/27 06:12:43;;;;;;;13.27;3.20;;;10.70;99.90;;;;;;4117454;28;20055;-69
2023/12/27 06:14:46;;;;;;;9.35;3.47;;;10.60;99.90;;;;;;4117411;28;20047;-68
2023/12/27 06:16:48;;;;;;;8.77;3.03;;;10.60;99.90;;;;;;4116886;28;20410;-69
2023/12/27 06:18:54;;;;;;;12.20;3.38;;;10.60;99.90;;;;;;4117504;28;20414;-69
2023/12/27 06:20:56;;;;;;;12.65;3.33;;;10.60;99.90;;;;;;4100207;28;20077;-70
2023/12/27 06:22:58;;;;;;;9.00;3.25;;;10.60;99.90;;;;;;4117351;28;20407;-70
2023/12/27 06:25:00;;;;;;;10.40;3.13;;;10.60;99.90;;;;;;4102062;28;20061;-70
2023/12/27 06:27:06;;;;;;;14.95;3.63;;;10.60;99.90;;;;;;4101526;29;20420;-70
2023/12/27 06:29:08;;;;;;;11.88;3.33;;;10.60;99.90;;;;;;4101205;29;20055;-69
2023/12/27 06:31:12;;;;;;;9.80;2.63;;;10.60;99.90;;;;;;4112758;28;20074;-69
2023/12/27 06:33:14;;;;;;;10.15;3.20;;;10.50;99.90;;;;;;4117383;28;20042;-69
2023/12/27 06:35:16;;;;;;;15.93;3.08;;;10.60;99.90;;;;;;4117813;28;20053;-68
2023/12/27 06:37:18;;;;;;;9.70;2.95;;;10.60;99.90;;;;;;4100070;28;20110;-69
2023/12/27 06:39:21;;;;;;;10.05;3.70;;;10.60;99.90;;;;;;4117227;28;20475;-71
2023/12/27 06:41:23;;;;;;;15.15;3.85;;;10.50;99.90;;;;;;4119534;28;20475;-71
2023/12/27 06:43:25;;;;;;;10.15;3.17;;;10.50;99.90;;;;;;4086922;29;20077;-69
2023/12/27 06:45:27;;;;;;;11.30;3.33;;;10.50;99.90;;;;;;4103556;29;20058;-68
2023/12/27 06:47:31;;;;;;;8.65;2.67;;;10.50;99.90;;;;;;4102499;29;20475;-70
2023/12/27 06:49:33;;;;;;;11.60;3.28;;;10.50;99.90;;;;;;4101250;29;20083;-69
2023/12/27 06:51:35;;;;;;;7.25;2.90;;;10.40;99.90;;;;;;4105640;28;20047;-69
2023/12/27 06:53:37;;;;;;;10.13;3.20;;;10.50;99.90;;;;;;4115529;28;20110;-71
2023/12/27 06:55:39;;;;;;;13.05;4.35;;;10.50;99.90;;;;;;4099441;28;20403;-69
2023/12/27 06:57:41;;;;;;;11.48;3.35;;;10.40;99.90;;;;;;4114323;28;20054;-69
2023/12/27 06:59:44;;;;;;;15.15;4.10;;;10.40;99.90;;;;;;4099815;29;20055;-66
2023/12/27 07:01:46;;;;;;;11.43;3.72;;;10.40;99.90;;;;;;4116601;28;20046;-69
2023/12/27 07:03:52;;;;;;;9.50;3.20;;;10.40;99.90;;;;;;4116512;28;20134;-70
2023/12/27 07:05:54;;;;;;;9.73;3.72;;;10.40;99.90;;;;;;4117206;28;20430;-70
2023/12/27 07:07:56;;;;;;;12.63;3.75;;;10.40;99.90;;;;;;4109478;28;20043;-70
2023/12/27 07:09:59;;;;;;;12.20;3.75;;;10.40;99.90;;;;;;4115939;28;20495;-71
2023/12/27 07:12:01;;;;;;;12.68;3.90;;;10.30;99.90;;;;;;4112243;28;20100;-70
2023/12/27 07:14:03;;;;;;;10.95;4.05;;;10.30;99.90;;;;;;4117623;28;20451;-70
2023/12/27 07:16:06;;;;;;;15.25;4.13;;;10.30;99.90;;;;;;4117208;28;20454;-70
2023/12/27 07:18:08;;;;;;;8.52;3.33;;;10.30;99.90;;;;;;4115617;28;20395;-70
2023/12/27 07:20:12;;;;;;;11.55;3.67;;;10.30;99.90;;;;;;4099567;28;20051;-70
2023/12/27 07:22:14;;;;;;;14.43;3.83;;;10.30;99.90;;;;;;4115739;28;20054;-70
2023/12/27 07:24:16;;;;;;;15.07;4.50;;;10.20;99.90;;;;;;4115762;28;20050;-69
2023/12/27 07:26:19;;;;;;;13.88;3.70;;;10.20;99.90;;;;;;4116402;28;20407;-70
2023/12/27 07:28:21;;;;;;;13.32;4.28;;;10.20;99.90;;;;;;4108754;28;20414;-70
2023/12/27 07:30:23;;;;;;;14.20;3.13;;;10.20;99.90;;;;;;4100394;29;20051;-69
2023/12/27 07:32:26;;;;;;;14.65;3.83;;;10.20;99.90;;;;;;4112021;28;20097;-70
2023/12/27 07:34:28;;;;;;;15.68;3.58;;;10.10;99.90;;;;;;4116463;28;20046;-70
2023/12/27 07:36:32;;;;;;;13.00;3.90;;;10.20;99.90;;;;;;4115726;28;20129;-70
2023/12/27 07:38:34;;;;;;;8.95;2.97;;;10.10;99.90;;;;;;4116689;28;20054;-69
2023/12/27 07:40:36;;;;;;;9.30;3.30;;;10.10;99.90;;;;;;4115977;28;20482;-69
2023/12/27 07:42:39;;;;;;;13.27;3.97;;;10.10;99.90;;;;;;4115103;28;20059;-69
2023/12/27 07:44:41;;;;;;;10.55;3.78;;;10.10;99.90;;;;;;4115184;28;20053;-70
2023/12/27 07:46:43;;;;;;;15.18;3.67;;;10.10;99.90;;;;;;4116101;28;20082;-70
2023/12/27 07:48:45;;;;;;;12.50;3.63;;;10.10;99.90;;;;;;4115858;28;20043;-70
2023/12/27 07:50:47;;;;;;;12.63;3.45;;;10.00;99.90;;;;;;4099499;28;20051;-70
2023/12/27 07:52:52;;;;;;;14.50;3.95;;;10.00;99.90;;;;;;4116190;28;20050;-70
2023/12/27 07:54:54;;;;;;;10.80;3.88;;;10.10;99.90;;;;;;4116181;28;20047;-70
2023/12/27 07:56:56;;;;;;;12.50;3.85;;;10.00;99.90;;;;;;4115776;28;20051;-70
2023/12/27 07:58:58;;;;;;;11.68;3.88;;;10.00;99.90;;;;;;4116012;28;20050;-69
2023/12/27 08:01:00;;;;;;;10.02;3.70;;;10.00;99.90;;;;;;4114922;28;20089;-70
2023/12/27 08:03:07;;;;;;;14.18;4.13;;;10.00;99.90;;;;;;4115607;28;20066;-70
2023/12/27 08:05:10;;;;;;;13.13;3.88;;;10.10;99.90;;;;;;4099090;28;20110;-69
2023/12/27 08:07:13;;;;;;;12.55;3.67;;;10.00;99.90;;;;;;4115074;28;20051;-69
2023/12/27 08:09:18;;;;;;;18.98;4.20;;;10.00;99.90;;;;;;4115381;28;20137;-70
2023/12/27 08:11:21;;;;;;;10.35;3.55;;;10.10;99.90;;;;;;4115676;28;20077;-69
2023/12/27 08:13:23;;;;;;;14.30;3.83;;;10.10;99.90;;;;;;4117424;28;20074;-70
2023/12/27 08:15:25;;;;;;;9.65;3.75;;;10.10;99.90;;;;;;4118112;28;20046;-70
2023/12/27 08:17:27;;;;;;;12.60;3.80;;;10.10;99.90;;;;;;4119431;28;20058;-70
2023/12/27 08:19:29;;;;;;;12.00;3.65;;;10.10;99.90;;;;;;4116866;28;20101;-70
2023/12/27 08:21:31;;;;;;;11.23;3.83;;;10.10;99.90;;;;;;4115685;28;20051;-70
2023/12/27 08:23:33;;;;;;;9.80;3.72;;;10.10;99.90;;;;;;4118804;28;20050;-72
2023/12/27 08:25:37;;;;;;;16.13;3.85;;;10.10;99.90;;;;;;4118852;28;20153;-70
2023/12/27 08:27:39;;;;;;;14.15;3.88;;;10.10;99.90;;;;;;4101676;28;20086;-70
2023/12/27 08:29:42;;;;;;;15.73;4.40;;;10.00;99.90;;;;;;4118553;28;20149;-72
2023/12/27 08:31:44;;;;;;;17.45;4.00;;;10.00;99.90;;;;;;4117494;28;20470;-70
2023/12/27 08:33:48;;;;;;;11.13;3.80;;;10.10;99.90;;;;;;4114869;28;20102;-70
2023/12/27 08:35:50;;;;;;;11.75;3.28;;;10.00;99.90;;;;;;4114592;28;20550;-68
2023/12/27 08:37:53;;;;;;;13.73;4.15;;;10.10;99.90;;;;;;4110947;28;20466;-70
2023/12/27 08:39:55;;;;;;;15.80;4.10;;;10.10;99.90;;;;;;4099356;29;20501;-70
2023/12/27 08:41:58;;;;;;;11.40;3.90;;;10.00;99.90;;;;;;4105794;28;20051;-69
2023/12/27 08:44:00;;;;;;;12.63;3.60;;;10.00;99.90;;;;;;4115116;28;20054;-69
2023/12/27 08:46:03;;;;;;;12.82;3.83;;;10.10;99.90;;;;;;4115503;28;20074;-69
2023/12/27 08:48:06;;;;;;;11.30;4.03;;;10.10;99.90;;;;;;4115698;28;20105;-70
2023/12/27 08:50:09;;;;;;;14.90;4.30;;;10.00;99.90;;;;;;4114610;28;20047;-70
2023/12/27 08:52:11;;;;;;;14.77;4.53;;;10.00;99.90;;;;;;4114535;28;20051;-70
2023/12/27 08:54:13;;;;;;;18.02;4.88;;;10.10;99.90;;;;;;4099303;29;20047;-69
2023/12/27 08:56:17;;;;;;;12.20;4.15;;;10.10;99.90;;;;;;4100185;29;20483;-70
2023/12/27 08:58:20;;;;;;;15.55;3.95;;;10.10;99.90;;;;;;4099924;29;20418;-69
2023/12/27 09:00:22;;;;;;;7.68;3.03;;;10.00;99.90;;;;;;4108802;28;20483;-70
2023/12/27 09:02:24;;;;;;;13.90;4.55;;;10.00;99.90;;;;;;4116131;28;20058;-74
2023/12/27 09:04:27;;;;;;;16.67;3.92;;;10.00;99.90;;;;;;4116919;28;20043;-69
2023/12/27 09:06:29;;;;;;;14.65;4.03;;;10.10;99.90;;;;;;4115918;28;20102;-69
2023/12/27 09:08:31;;;;;;;14.55;3.85;;;10.10;99.90;;;;;;4115823;28;20066;-69
2023/12/27 09:10:34;;;;;;;14.05;3.85;;;10.00;99.90;;;;;;4118261;28;20134;-69
2023/12/27 09:12:38;;;;;;;12.52;4.10;;;10.10;99.90;;;;;;4115041;28;20421;-70
2023/12/27 09:14:42;;;;;;;17.65;4.22;;;10.30;99.90;;;;;;4116696;28;20043;-71
2023/12/27 09:16:44;;;;;;;16.25;4.28;;;10.20;99.90;;;;;;4112748;28;20133;-68
2023/12/27 09:18:46;;;;;;;11.13;3.67;;;10.20;99.90;;;;;;4109029;28;20463;-72
2023/12/27 09:20:54;;;;;;;14.02;3.63;;;10.30;99.90;;;;;;4110727;28;20152;-72
2023/12/27 09:22:56;;;;;;;10.15;3.63;;;10.30;99.90;;;;;;4112667;28;20042;-69
2023/12/27 09:24:58;;;;;;;13.05;3.53;;;10.30;99.90;;;;;;4095985;29;20098;-67
2023/12/27 09:27:00;;;;;;;18.23;4.32;;;10.50;99.90;;;;;;4103111;28;20044;-71
2023/12/27 09:29:02;;;;;;;22.08;4.28;;;10.50;99.90;;;;;;4111545;28;20090;-70
2023/12/27 09:31:07;;;;;;;12.48;3.53;;;10.50;99.90;;;;;;4114455;28;20065;-70
2023/12/27 09:33:09;;;;;;;8.57;3.00;;;10.60;99.90;;;;;;4113608;28;20137;-69
2023/12/27 09:35:14;;;;;;;13.35;3.53;;;10.60;99.90;;;;;;4113774;28;20392;-69
2023/12/27 09:37:16;;;;;;;16.75;3.88;;;10.60;99.90;;;;;;4113227;28;20129;-68
2023/12/27 09:39:18;;;;;;;14.48;3.80;;;10.60;99.90;;;;;;4113687;28;20125;-70
2023/12/27 09:41:20;;;;;;;13.50;3.40;;;10.70;99.90;;;;;;4108350;28;20076;-69
2023/12/27 09:43:24;;;;;;;10.27;3.40;;;10.50;99.90;;;;;;4097810;28;20106;-70
2023/12/27 09:45:30;;;;;;;14.23;3.78;;;10.60;99.90;;;;;;4100768;29;20051;-70
2023/12/27 09:47:35;;;;;;;11.57;3.45;;;10.60;99.90;;;;;;4102071;28;20078;-71
2023/12/27 09:49:38;;;;;;;16.05;4.65;;;10.50;99.90;;;;;;4117457;28;20050;-70
2023/12/27 09:51:42;;;;;;;10.75;3.55;;;10.40;99.90;;;;;;4117615;28;20514;-70
2023/12/27 09:53:44;;;;;;;13.60;4.18;;;10.40;99.90;;;;;;4103672;28;20411;-69
2023/12/27 09:55:48;;;;;;;13.40;4.00;;;10.40;99.90;;;;;;4117827;28;20043;-70
2023/12/27 09:57:51;;;;;;;10.88;3.90;;;10.50;99.90;;;;;;4117643;28;20038;-70
2023/12/27 09:59:55;;;;;;;9.73;3.72;;;10.70;99.90;;;;;;4102406;28;20057;-70
2023/12/27 10:02:01;;;;;;;17.88;4.10;;;10.70;99.90;;;;;;4112484;28;20518;-69
2023/12/27 10:04:15;;;;;;;14.85;3.97;;;10.90;99.90;;;;;;4116279;28;20050;-68
2023/12/27 10:06:27;;;;;;;16.30;4.45;;;10.90;99.90;;;;;;4116637;28;20081;-67
2023/12/27 10:08:30;;;;;;;16.55;3.60;;;10.90;99.90;;;;;;4117174;28;20054;-69
2023/12/27 10:10:35;;;;;;;9.88;4.03;;;10.90;99.90;;;;;;4117352;28;20459;-69
2023/12/27 10:12:37;;;;;;;9.48;3.30;;;11.00;99.90;;;;;;4116452;28;20360;-68
2023/12/27 10:14:41;;;;;;;10.68;3.63;;;10.80;99.90;;;;;;4115142;28;20050;-68
2023/12/27 10:16:43;;;;;;;9.15;3.25;;;10.80;99.90;;;;;;4104612;28;20047;-68
2023/12/27 10:18:46;;;;;;;14.45;3.97;;;10.80;99.90;;;;;;4114646;28;20138;-69
2023/12/27 10:20:51;;;;;;;9.23;3.10;;;10.80;99.90;;;;;;4101325;29;20577;-67
2023/12/27 10:22:53;;;;;;;13.63;3.25;;;10.80;99.90;;;;;;4117848;28;20058;-69
2023/12/27 10:24:55;;;;;;;11.18;3.75;;;10.80;99.90;;;;;;4117803;28;20042;-69
2023/12/27 10:26:57;;;;;;;14.82;3.95;;;10.70;99.90;;;;;;4118173;28;20047;-72
2023/12/27 10:29:00;;;;;;;8.63;3.28;;;10.80;99.90;;;;;;4119504;28;20100;-75
2023/12/27 10:31:05;;;;;;;9.07;3.10;;;11.00;99.90;;;;;;4119747;28;20054;-74